Time;durP1;ratioP1;P1;durP2;ratioP2;P2;SDS_P1;SDS_P2;PMS_P1;PMS_P2;Temp;Humidity;BMP_temperature;BMP_pressure;BME280_temperature;BME280_humidity;BME280_pressure;Samples;Min_cycle;Max_cycle;Signal;HPM_P1;HPM_P2
2024/04/17 00:01:31;;;;;;;0.20;0.20;;;5.60;1.00;;;;;;5558216;25;20032;-85
2024/04/17 00:03:57;;;;;;;0.20;0.20;;;5.60;1.00;;;;;;5557446;25;20786;-88
2024/04/17 00:06:23;;;;;;;0.20;0.20;;;5.60;1.00;;;;;;5556182;25;20005;-88
2024/04/17 00:08:49;;;;;;;0.20;0.20;;;5.60;1.00;;;;;;5557964;25;20005;-86
2024/04/17 00:11:16;;;;;;;0.20;0.20;;;5.50;1.00;;;;;;5557905;25;20008;-87
2024/04/17 00:13:41;;;;;;;0.20;0.20;;;5.50;1.00;;;;;;5556988;25;20001;-87
2024/04/17 00:16:07;;;;;;;0.20;0.20;;;5.50;1.00;;;;;;5542454;25;20484;-86
2024/04/17 00:18:33;;;;;;;0.10;0.10;;;5.50;1.00;;;;;;5555686;25;20001;-87
2024/04/17 00:20:59;;;;;;;0.30;0.30;;;5.50;1.00;;;;;;5559311;25;20011;-87
2024/04/17 00:23:25;;;;;;;0.17;0.17;;;5.60;1.00;;;;;;5561525;25;20016;-87
2024/04/17 00:25:51;;;;;;;0.20;0.20;;;5.60;1.00;;;;;;5561049;25;20012;-88
2024/04/17 00:28:20;;;;;;;0.10;0.10;;;5.60;1.00;;;;;;5560901;25;20000;-87
2024/04/17 00:30:48;;;;;;;0.20;0.20;;;5.60;1.00;;;;;;5561181;25;20899;-87
2024/04/17 00:33:14;;;;;;;0.20;0.20;;;5.60;1.00;;;;;;5549567;25;20012;-88
2024/04/17 00:35:40;;;;;;;0.20;0.20;;;5.60;1.00;;;;;;5546413;25;19994;-88
2024/04/17 00:38:05;;;;;;;0.20;0.20;;;5.60;1.00;;;;;;5526997;26;20029;-87
2024/04/17 00:40:32;;;;;;;0.20;0.20;;;5.60;1.00;;;;;;5524290;26;20065;-88
2024/04/17 00:43:00;;;;;;;0.20;0.20;;;5.70;1.00;;;;;;5542131;25;20313;-88
2024/04/17 00:45:39;;;;;;;0.20;0.20;;;5.70;1.00;;;;;;5561852;25;20004;-88
2024/04/17 00:48:09;;;;;;;0.10;0.10;;;5.70;1.00;;;;;;5560670;25;20313;-88
2024/04/17 00:50:36;;;;;;;0.10;0.10;;;5.70;1.00;;;;;;5561343;25;20001;-87
2024/04/17 00:53:03;;;;;;;0.10;0.10;;;5.70;1.00;;;;;;5559521;25;20079;-87
2024/04/17 00:55:29;;;;;;;0.15;0.15;;;5.70;1.00;;;;;;5560534;25;19997;-86
2024/04/17 00:57:56;;;;;;;0.15;0.15;;;5.70;1.00;;;;;;5559887;25;20032;-87
2024/04/17 01:00:22;;;;;;;0.10;0.10;;;5.70;1.00;;;;;;5561368;25;20464;-87
2024/04/17 01:02:47;;;;;;;0.10;0.10;;;5.80;1.00;;;;;;5559458;25;20012;-86
2024/04/17 01:05:13;;;;;;;0.20;0.20;;;5.70;1.00;;;;;;5560952;25;20001;-86
2024/04/17 01:07:40;;;;;;;0.20;0.20;;;5.80;1.00;;;;;;5558933;25;20016;-86
2024/04/17 01:10:06;;;;;;;0.20;0.20;;;5.80;1.00;;;;;;5560071;25;20001;-83
2024/04/17 01:12:35;;;;;;;0.10;0.10;;;5.90;1.00;;;;;;5560289;25;20025;-83
2024/04/17 01:15:03;;;;;;;0.20;0.20;;;6.00;1.00;;;;;;5559886;25;20005;-82
2024/04/17 01:17:29;;;;;;;0.20;0.20;;;6.00;1.00;;;;;;5521095;25;20005;-81
2024/04/17 01:19:54;;;;;;;0.10;0.10;;;6.20;1.00;;;;;;5540035;25;20009;-83
2024/04/17 01:22:20;;;;;;;0.10;0.10;;;6.10;1.00;;;;;;5558270;25;20004;-82
2024/04/17 01:24:46;;;;;;;0.20;0.20;;;6.10;1.00;;;;;;5558674;25;20008;-82
2024/04/17 01:27:11;;;;;;;0.10;0.10;;;6.20;1.00;;;;;;5559998;25;20000;-82
2024/04/17 01:29:37;;;;;;;0.20;0.20;;;6.20;1.00;;;;;;5559393;25;20015;-82
2024/04/17 01:32:03;;;;;;;0.17;0.17;;;6.20;1.00;;;;;;5558603;25;20585;-82
2024/04/17 01:34:30;;;;;;;0.10;0.10;;;6.20;1.00;;;;;;5543488;25;19993;-82
2024/04/17 01:36:56;;;;;;;0.20;0.20;;;6.20;1.00;;;;;;5519813;25;20002;-81
2024/04/17 01:39:21;;;;;;;0.10;0.10;;;6.20;1.00;;;;;;5522111;25;20461;-81
2024/04/17 01:41:47;;;;;;;0.10;0.10;;;6.20;1.00;;;;;;5538045;25;20001;-82
2024/04/17 01:44:15;;;;;;;0.10;0.10;;;6.20;1.00;;;;;;5559582;25;20001;-82
2024/04/17 01:46:41;;;;;;;0.10;0.10;;;6.20;1.00;;;;;;5559219;25;20037;-83
2024/04/17 01:49:06;;;;;;;0.10;0.10;;;6.20;1.00;;;;;;5559456;25;19996;-82
2024/04/17 01:51:32;;;;;;;0.10;0.10;;;6.20;1.00;;;;;;5557402;25;20001;-82
2024/04/17 01:53:58;;;;;;;0.10;0.10;;;6.20;1.00;;;;;;5559342;25;20045;-82
2024/04/17 01:56:23;;;;;;;0.10;0.10;;;6.20;1.00;;;;;;5558910;25;20015;-83
2024/04/17 01:58:49;;;;;;;0.10;0.10;;;6.20;1.00;;;;;;5558552;25;20004;-82
2024/04/17 02:01:15;;;;;;;0.15;0.15;;;6.50;1.00;;;;;;5559564;25;20004;-82
2024/04/17 02:03:40;;;;;;;0.20;0.20;;;6.20;1.00;;;;;;5560025;25;20011;-83
2024/04/17 02:06:06;;;;;;;0.20;0.20;;;6.20;1.00;;;;;;5557415;25;20016;-82
2024/04/17 02:08:32;;;;;;;0.20;0.20;;;6.30;1.00;;;;;;5560367;25;20012;-82
2024/04/17 02:10:58;;;;;;;0.20;0.20;;;6.30;1.00;;;;;;5557961;25;20596;-83
2024/04/17 02:13:24;;;;;;;0.20;0.20;;;6.30;1.00;;;;;;5558891;25;20488;-82
2024/04/17 02:15:50;;;;;;;0.17;0.17;;;6.30;1.00;;;;;;5558552;25;20233;-83
2024/04/17 02:18:15;;;;;;;0.10;0.10;;;6.30;1.00;;;;;;5559484;25;20013;-82
2024/04/17 02:20:41;;;;;;;0.10;0.10;;;6.30;1.00;;;;;;5558291;25;20572;-82
2024/04/17 02:23:07;;;;;;;0.20;0.20;;;6.30;1.00;;;;;;5557559;25;20001;-82
2024/04/17 02:25:34;;;;;;;0.20;0.20;;;6.30;1.00;;;;;;5559224;25;20008;-83
2024/04/17 02:28:00;;;;;;;0.10;0.10;;;6.30;1.00;;;;;;5557716;25;20513;-82
2024/04/17 02:30:25;;;;;;;0.20;0.20;;;6.30;1.00;;;;;;5559528;25;20480;-82
2024/04/17 02:32:51;;;;;;;0.20;0.20;;;6.30;1.00;;;;;;5558443;25;20005;-83
2024/04/17 02:35:17;;;;;;;0.10;0.10;;;6.30;1.00;;;;;;5544205;25;20464;-83
2024/04/17 02:37:43;;;;;;;0.15;0.15;;;6.40;1.00;;;;;;5517675;25;20808;-83
2024/04/17 02:40:09;;;;;;;0.20;0.20;;;6.60;1.00;;;;;;5528291;25;20011;-83
2024/04/17 02:42:35;;;;;;;0.13;0.13;;;6.40;1.00;;;;;;5558217;25;20005;-82
2024/04/17 02:45:00;;;;;;;0.10;0.10;;;6.40;1.00;;;;;;5558792;25;20761;-82
2024/04/17 02:47:26;;;;;;;0.13;0.13;;;6.40;1.00;;;;;;5558791;25;20000;-82
2024/04/17 02:49:52;;;;;;;0.20;0.20;;;6.40;1.00;;;;;;5549634;25;20004;-82
2024/04/17 02:52:18;;;;;;;0.20;0.20;;;6.40;1.00;;;;;;5519844;25;20468;-82
2024/04/17 02:54:44;;;;;;;0.10;0.10;;;6.60;1.00;;;;;;5524377;25;20017;-82
2024/04/17 02:57:09;;;;;;;0.20;0.20;;;6.50;1.00;;;;;;5558538;25;20036;-82
2024/04/17 02:59:35;;;;;;;0.20;0.20;;;6.50;1.00;;;;;;5559522;25;20001;-83
2024/04/17 03:02:01;;;;;;;0.10;0.10;;;6.40;1.00;;;;;;5557049;25;20472;-82
2024/04/17 03:04:26;;;;;;;0.15;0.15;;;6.50;1.00;;;;;;5559171;25;20004;-83
2024/04/17 03:06:52;;;;;;;0.20;0.20;;;6.40;1.00;;;;;;5556120;25;20005;-82
2024/04/17 03:09:20;;;;;;;0.20;0.20;;;6.40;1.00;;;;;;5557885;25;20013;-82
2024/04/17 03:11:46;;;;;;;0.10;0.10;;;6.40;1.00;;;;;;5557740;25;20015;-83
2024/04/17 03:14:23;;;;;;;0.10;0.10;;;6.40;1.00;;;;;;5559098;25;20688;-83
2024/04/17 03:16:49;;;;;;;0.10;0.10;;;6.40;1.00;;;;;;5556324;25;20001;-83
2024/04/17 03:19:15;;;;;;;0.20;0.20;;;6.40;1.00;;;;;;5558796;25;20008;-83
2024/04/17 03:21:42;;;;;;;0.20;0.20;;;6.40;1.00;;;;;;5555687;25;20005;-82
2024/04/17 03:24:08;;;;;;;0.10;0.10;;;6.40;1.00;;;;;;5557585;25;20080;-82
2024/04/17 03:26:34;;;;;;;0.10;0.10;;;6.40;1.00;;;;;;5558114;25;20361;-83
2024/04/17 03:29:14;;;;;;;0.20;0.20;;;6.50;1.00;;;;;;5558669;25;20001;-83
2024/04/17 03:31:40;;;;;;;0.20;0.20;;;6.40;1.00;;;;;;5556793;25;20065;-83
2024/04/17 03:34:06;;;;;;;0.10;0.10;;;6.40;1.00;;;;;;5558514;25;20424;-82
2024/04/17 03:36:32;;;;;;;0.20;0.20;;;6.40;1.00;;;;;;5538043;25;20437;-83
2024/04/17 03:38:57;;;;;;;0.20;0.20;;;6.40;1.00;;;;;;5532228;25;20046;-80
2024/04/17 03:41:23;;;;;;;0.10;0.10;;;6.40;1.00;;;;;;5557897;25;20011;-81
2024/04/17 03:43:49;;;;;;;0.20;0.20;;;6.40;1.00;;;;;;5557383;25;20011;-82
2024/04/17 03:46:17;;;;;;;0.20;0.20;;;6.40;1.00;;;;;;5557717;25;20031;-82
2024/04/17 03:48:43;;;;;;;0.10;0.10;;;6.40;1.00;;;;;;5557435;25;20398;-82
2024/04/17 03:51:08;;;;;;;0.20;0.20;;;6.40;1.00;;;;;;5554808;25;20456;-82
2024/04/17 03:53:34;;;;;;;0.13;0.13;;;6.40;1.00;;;;;;5558397;25;20005;-81
2024/04/17 03:56:08;;;;;;;0.20;0.20;;;6.40;1.00;;;;;;5557651;25;20012;-81
2024/04/17 03:58:33;;;;;;;0.20;0.20;;;6.40;1.00;;;;;;5557623;25;20005;-84
2024/04/17 04:00:59;;;;;;;0.20;0.20;;;6.40;1.00;;;;;;5556783;25;20664;-81
2024/04/17 04:03:25;;;;;;;0.10;0.10;;;6.40;1.00;;;;;;5557816;25;20044;-81
2024/04/17 04:06:11;;;;;;;0.20;0.20;;;6.40;1.00;;;;;;5542346;25;20021;-81
2024/04/17 04:08:36;;;;;;;0.20;0.20;;;6.40;1.00;;;;;;5536319;25;20331;-81
2024/04/17 04:11:02;;;;;;;0.15;0.15;;;6.40;1.00;;;;;;5556816;25;20428;-82
2024/04/17 04:13:28;;;;;;;0.10;0.10;;;6.30;1.00;;;;;;5537465;25;20013;-82
2024/04/17 04:15:55;;;;;;;0.20;0.20;;;6.30;1.00;;;;;;5519243;25;20010;-82
2024/04/17 04:18:21;;;;;;;0.20;0.20;;;6.30;1.00;;;;;;5549970;25;20035;-82
2024/04/17 04:20:46;;;;;;;0.10;0.10;;;6.30;1.00;;;;;;5555692;25;20015;-81
2024/04/17 04:23:12;;;;;;;0.10;0.10;;;6.40;1.00;;;;;;5555573;25;20000;-82
2024/04/17 04:25:38;;;;;;;0.10;0.10;;;6.30;1.00;;;;;;5557355;25;20077;-82
2024/04/17 04:28:24;;;;;;;0.10;0.10;;;6.30;1.00;;;;;;5555894;25;20001;-82
2024/04/17 04:30:51;;;;;;;0.20;0.20;;;6.30;1.00;;;;;;5556927;25;20016;-82
2024/04/17 04:33:17;;;;;;;0.20;0.20;;;6.30;1.00;;;;;;5556493;25;20714;-81
2024/04/17 04:35:43;;;;;;;0.15;0.15;;;6.30;1.00;;;;;;5556967;25;20005;-80
2024/04/17 04:38:08;;;;;;;0.10;0.10;;;6.30;1.00;;;;;;5524762;25;20536;-82
2024/04/17 04:40:34;;;;;;;0.20;0.20;;;6.30;1.00;;;;;;5518017;25;20020;-80
2024/04/17 04:43:00;;;;;;;0.13;0.13;;;6.30;1.00;;;;;;5518589;26;20015;-81
2024/04/17 04:45:25;;;;;;;0.15;0.15;;;6.30;1.00;;;;;;5520225;25;20005;-82
2024/04/17 04:47:51;;;;;;;0.20;0.20;;;6.30;1.00;;;;;;5517777;25;20001;-82
2024/04/17 04:50:17;;;;;;;0.10;0.10;;;6.30;1.00;;;;;;5519740;25;20763;-82
2024/04/17 04:52:42;;;;;;;0.20;0.20;;;6.30;1.00;;;;;;5530674;25;20008;-81
2024/04/17 04:55:08;;;;;;;0.20;0.20;;;6.30;1.00;;;;;;5556464;25;20011;-81
2024/04/17 04:57:34;;;;;;;0.10;0.10;;;6.30;1.00;;;;;;5556374;25;20008;-81
2024/04/17 04:59:59;;;;;;;0.20;0.20;;;6.30;1.00;;;;;;5556375;25;20077;-82
2024/04/17 05:02:25;;;;;;;0.20;0.20;;;6.30;1.00;;;;;;5555599;25;20037;-83
2024/04/17 05:04:51;;;;;;;0.20;0.20;;;6.30;1.00;;;;;;5558948;25;20080;-84
2024/04/17 05:07:16;;;;;;;0.20;0.20;;;6.20;1.00;;;;;;5558552;25;20008;-82
2024/04/17 05:09:42;;;;;;;0.10;0.10;;;6.20;1.00;;;;;;5559344;25;20073;-83
2024/04/17 05:12:08;;;;;;;0.20;0.20;;;6.20;1.00;;;;;;5559652;25;20001;-83
2024/04/17 05:14:34;;;;;;;0.10;0.10;;;6.10;1.00;;;;;;5560798;25;20067;-84
2024/04/17 05:17:01;;;;;;;0.20;0.20;;;6.00;1.00;;;;;;5538721;25;20252;-85
2024/04/17 05:19:27;;;;;;;0.20;0.20;;;6.00;1.00;;;;;;5561084;25;20114;-88
2024/04/17 05:21:52;;;;;;;0.20;0.20;;;5.90;1.00;;;;;;5556630;25;20320;-89
2024/04/17 05:24:18;;;;;;;0.13;0.13;;;5.90;1.00;;;;;;5523863;26;20081;-87
2024/04/17 05:26:44;;;;;;;0.17;0.17;;;5.90;1.00;;;;;;5560516;25;19997;-88
2024/04/17 05:29:09;;;;;;;0.20;0.20;;;5.80;1.00;;;;;;5560955;25;20379;-86
2024/04/17 05:31:35;;;;;;;0.20;0.20;;;5.80;1.00;;;;;;5572088;25;19992;-88
2024/04/17 05:34:01;;;;;;;0.20;0.20;;;5.80;1.00;;;;;;5566564;25;20358;-86
2024/04/17 05:36:27;;;;;;;0.15;0.15;;;5.80;1.00;;;;;;5560708;25;20000;-89
2024/04/17 05:38:52;;;;;;;0.20;0.20;;;5.80;1.00;;;;;;5560201;25;20028;-89
2024/04/17 05:41:18;;;;;;;0.20;0.20;;;5.80;1.00;;;;;;5556416;25;20005;-89
2024/04/17 05:43:44;;;;;;;0.20;0.20;;;5.80;1.00;;;;;;5531855;25;20040;-89
2024/04/17 05:46:09;;;;;;;0.20;0.20;;;5.70;1.00;;;;;;5559617;25;20004;-85
2024/04/17 05:48:35;;;;;;;0.20;0.20;;;5.70;1.00;;;;;;5532555;25;20446;-89
2024/04/17 05:51:01;;;;;;;0.20;0.20;;;5.60;1.00;;;;;;5523751;25;20005;-87
2024/04/17 05:53:26;;;;;;;0.20;0.20;;;5.60;1.00;;;;;;5546060;25;20088;-86
2024/04/17 05:55:52;;;;;;;0.20;0.20;;;6.20;1.00;;;;;;5523957;25;20005;-87
2024/04/17 05:58:18;;;;;;;0.20;0.20;;;5.50;1.00;;;;;;5521659;26;20013;-85
2024/04/17 06:00:43;;;;;;;0.20;0.20;;;5.50;1.00;;;;;;5529693;25;20020;-88
2024/04/17 06:03:09;;;;;;;0.10;0.10;;;5.50;1.00;;;;;;5555923;25;19996;-86
2024/04/17 06:05:35;;;;;;;0.20;0.20;;;5.40;1.00;;;;;;5559107;25;20012;-87
2024/04/17 06:08:01;;;;;;;0.20;0.20;;;5.40;1.00;;;;;;5553634;25;20073;-87
2024/04/17 06:10:26;;;;;;;0.20;0.20;;;5.40;1.00;;;;;;5522250;25;20010;-87
2024/04/17 06:12:52;;;;;;;0.20;0.20;;;5.30;1.00;;;;;;5537725;25;20016;-89
2024/04/17 06:15:18;;;;;;;0.20;0.20;;;5.30;1.00;;;;;;5535667;25;20015;-87
2024/04/17 06:17:45;;;;;;;0.20;0.20;;;5.30;1.00;;;;;;5525505;25;20030;-90
2024/04/17 06:20:10;;;;;;;0.20;0.20;;;5.30;1.00;;;;;;5547720;25;20488;-91
2024/04/17 06:22:36;;;;;;;0.20;0.20;;;5.30;1.00;;;;;;5559541;25;20336;-89
2024/04/17 06:25:02;;;;;;;0.20;0.20;;;5.30;1.00;;;;;;5559869;25;20020;-89
2024/04/17 06:27:27;;;;;;;0.10;0.10;;;5.40;1.00;;;;;;5547037;25;20073;-89
2024/04/17 06:29:53;;;;;;;0.10;0.10;;;5.40;1.00;;;;;;5541858;25;20005;-89
2024/04/17 06:32:19;;;;;;;0.10;0.10;;;5.40;1.00;;;;;;5550326;25;20072;-89
2024/04/17 06:34:45;;;;;;;0.10;0.10;;;5.40;1.00;;;;;;5566231;25;20452;-86
2024/04/17 06:37:10;;;;;;;0.20;0.20;;;5.40;1.00;;;;;;5553955;25;20032;-86
2024/04/17 06:39:36;;;;;;;0.20;0.20;;;5.50;1.00;;;;;;5544103;25;19993;-88
2024/04/17 06:42:02;;;;;;;0.20;0.20;;;5.50;3.10;;;;;;5519879;25;20001;-87
2024/04/17 06:44:28;;;;;;;0.20;0.20;;;5.50;5.70;;;;;;5522391;25;20002;-86
2024/04/17 06:46:53;;;;;;;0.10;0.10;;;5.60;8.20;;;;;;5546224;25;20008;-87
2024/04/17 06:49:19;;;;;;;0.20;0.20;;;5.70;11.40;;;;;;5556916;25;20343;-87
2024/04/17 06:51:45;;;;;;;0.20;0.20;;;5.70;12.80;;;;;;5530315;25;20072;-87
2024/04/17 06:54:11;;;;;;;0.10;0.10;;;5.70;11.40;;;;;;5521226;26;20020;-88
2024/04/17 06:56:36;;;;;;;0.20;0.20;;;5.80;9.50;;;;;;5535472;25;20145;-87
2024/04/17 06:59:02;;;;;;;0.20;0.20;;;5.70;10.10;;;;;;5570973;25;20013;-89
2024/04/17 07:01:29;;;;;;;0.10;0.10;;;5.70;10.30;;;;;;5562169;25;20389;-88
2024/04/17 07:03:55;;;;;;;0.20;0.20;;;5.80;10.60;;;;;;5559606;25;20016;-87
2024/04/17 07:06:21;;;;;;;0.13;0.13;;;6.00;11.10;;;;;;5546604;25;20016;-87
2024/04/17 07:08:47;;;;;;;0.20;0.20;;;5.80;11.90;;;;;;5521130;25;20402;-90
2024/04/17 07:11:12;;;;;;;0.10;0.10;;;5.90;13.70;;;;;;5534842;25;20015;-87
2024/04/17 07:13:38;;;;;;;0.10;0.10;;;6.00;14.20;;;;;;5532319;25;20356;-87
2024/04/17 07:16:04;;;;;;;0.20;0.20;;;6.10;14.40;;;;;;5521605;25;20058;-87
2024/04/17 07:18:31;;;;;;;0.10;0.10;;;6.10;13.70;;;;;;5559476;25;20024;-88
2024/04/17 07:20:56;;;;;;;0.17;0.17;;;6.20;13.30;;;;;;5557560;25;20558;-87
2024/04/17 07:23:22;;;;;;;0.10;0.10;;;6.30;10.70;;;;;;5557104;25;20012;-88
2024/04/17 07:25:49;;;;;;;0.20;0.20;;;6.30;7.20;;;;;;5551689;25;20012;-87
2024/04/17 07:28:15;;;;;;;0.20;0.20;;;6.30;7.00;;;;;;5520595;25;20005;-88
2024/04/17 07:30:41;;;;;;;0.20;0.20;;;6.30;6.80;;;;;;5520110;25;20005;-87
2024/04/17 07:33:06;;;;;;;0.20;0.20;;;6.40;5.10;;;;;;5520848;25;20480;-87
2024/04/17 07:35:32;;;;;;;0.20;0.20;;;6.40;6.30;;;;;;5545218;25;19998;-87
2024/04/17 07:37:58;;;;;;;0.20;0.20;;;6.50;6.80;;;;;;5540957;25;20069;-87
2024/04/17 07:40:24;;;;;;;0.10;0.10;;;6.50;6.70;;;;;;5520719;25;20024;-87
2024/04/17 07:42:49;;;;;;;0.20;0.20;;;6.60;7.90;;;;;;5518689;25;20006;-87
2024/04/17 07:45:15;;;;;;;0.20;0.20;;;6.60;8.00;;;;;;5520375;25;20002;-87
2024/04/17 07:47:41;;;;;;;0.13;0.13;;;6.70;7.40;;;;;;5519384;25;20016;-87
2024/04/17 07:50:07;;;;;;;0.20;0.20;;;6.80;7.60;;;;;;5539911;25;20001;-87
2024/04/17 07:52:33;;;;;;;0.13;0.13;;;6.80;7.70;;;;;;5556284;25;20016;-86
2024/04/17 07:54:59;;;;;;;0.20;0.20;;;6.80;6.90;;;;;;5557562;25;20472;-87
2024/04/17 07:57:25;;;;;;;0.10;0.10;;;6.80;4.90;;;;;;5556971;25;20469;-89
2024/04/17 07:59:51;;;;;;;0.20;0.20;;;6.90;2.90;;;;;;5559013;25;20440;-89
2024/04/17 08:02:17;;;;;;;0.20;0.20;;;7.00;1.40;;;;;;5573640;25;20008;-91
2024/04/17 08:04:42;;;;;;;0.20;0.20;;;6.90;1.80;;;;;;5559339;25;19997;-88
2024/04/17 08:07:08;;;;;;;0.20;0.20;;;6.90;1.00;;;;;;5557198;25;20008;-90
2024/04/17 08:09:34;;;;;;;0.20;0.20;;;6.90;1.00;;;;;;5558413;25;20636;-89
2024/04/17 08:12:00;;;;;;;0.10;0.10;;;6.90;1.00;;;;;;5556079;25;20012;-89
2024/04/17 08:14:25;;;;;;;0.20;0.20;;;6.80;1.00;;;;;;5558033;25;20076;-88
2024/04/17 08:16:51;;;;;;;0.20;0.20;;;6.90;1.00;;;;;;5547870;25;20484;-87
2024/04/17 08:19:17;;;;;;;0.10;0.10;;;6.90;1.00;;;;;;5555215;25;20028;-87
2024/04/17 08:21:43;;;;;;;0.20;0.20;;;6.90;1.00;;;;;;5554950;25;20015;-89
2024/04/17 08:24:09;;;;;;;0.20;0.20;;;7.00;1.00;;;;;;5557729;25;20027;-86
2024/04/17 08:26:35;;;;;;;0.20;0.20;;;7.10;1.00;;;;;;5556390;25;20005;-88
2024/04/17 08:29:00;;;;;;;0.20;0.20;;;7.10;1.20;;;;;;5557288;25;20017;-89
2024/04/17 08:31:26;;;;;;;0.17;0.17;;;7.20;1.20;;;;;;5558687;25;20005;-88
2024/04/17 08:33:52;;;;;;;0.20;0.20;;;7.40;1.40;;;;;;5556468;25;19996;-87
2024/04/17 08:36:18;;;;;;;0.10;0.10;;;7.40;1.00;;;;;;5555101;25;20024;-87
2024/04/17 08:38:44;;;;;;;0.15;0.15;;;7.50;1.00;;;;;;5559490;25;20448;-86
2024/04/17 08:41:10;;;;;;;0.20;0.20;;;7.50;1.00;;;;;;5552007;25;20033;-86
2024/04/17 08:43:37;;;;;;;0.20;0.20;;;7.70;1.40;;;;;;5522713;25;20533;-85
2024/04/17 08:46:04;;;;;;;0.17;0.17;;;7.80;1.00;;;;;;5525605;25;20002;-82
2024/04/17 08:48:32;;;;;;;0.10;0.10;;;7.90;1.00;;;;;;5533521;25;20542;-86
2024/04/17 08:50:58;;;;;;;0.20;0.20;;;8.00;1.00;;;;;;5559040;25;20005;-85
2024/04/17 08:53:26;;;;;;;0.20;0.20;;;8.00;1.00;;;;;;5559690;25;20015;-85
2024/04/17 08:55:52;;;;;;;0.20;0.20;;;8.00;1.00;;;;;;5560819;25;20468;-84
2024/04/17 08:58:18;;;;;;;0.10;0.10;;;8.00;1.00;;;;;;5560402;25;20019;-83
2024/04/17 09:00:49;;;;;;;0.20;0.20;;;8.10;1.00;;;;;;5559226;25;20004;-84
2024/04/17 09:03:23;;;;;;;0.20;0.20;;;8.10;1.00;;;;;;5560251;25;20011;-83
2024/04/17 09:05:51;;;;;;;0.20;0.20;;;8.20;1.00;;;;;;5553123;25;20522;-83
2024/04/17 09:08:18;;;;;;;0.20;0.20;;;8.20;1.00;;;;;;5555784;25;20376;-82
2024/04/17 09:10:45;;;;;;;0.20;0.20;;;8.20;1.00;;;;;;5560127;25;20040;-82
2024/04/17 09:13:12;;;;;;;0.20;0.20;;;8.30;1.00;;;;;;5559425;25;20016;-83
2024/04/17 09:15:38;;;;;;;0.10;0.10;;;8.30;1.00;;;;;;5559115;25;20400;-82
2024/04/17 09:18:11;;;;;;;0.20;0.20;;;8.30;1.00;;;;;;5559091;25;20011;-82
2024/04/17 09:20:37;;;;;;;0.10;0.10;;;8.30;1.00;;;;;;5560330;25;20044;-83
2024/04/17 09:23:09;;;;;;;0.20;0.20;;;8.20;1.00;;;;;;5556128;25;20000;-82
2024/04/17 09:25:36;;;;;;;0.10;0.10;;;8.30;1.00;;;;;;5560673;25;20401;-83
2024/04/17 09:28:01;;;;;;;0.10;0.10;;;8.40;1.00;;;;;;5558734;25;20000;-84
2024/04/17 09:30:27;;;;;;;0.10;0.10;;;8.50;1.00;;;;;;5559512;25;20077;-83
2024/04/17 09:32:53;;;;;;;0.17;0.17;;;8.60;1.00;;;;;;5558788;25;20069;-82
2024/04/17 09:35:19;;;;;;;0.20;0.20;;;8.80;1.00;;;;;;5559751;25;20064;-80
2024/04/17 09:37:44;;;;;;;0.10;0.10;;;8.80;1.00;;;;;;5556182;25;20001;-83
2024/04/17 09:40:10;;;;;;;0.20;0.20;;;8.90;1.00;;;;;;5559296;25;19997;-83
2024/04/17 09:42:41;;;;;;;0.20;0.20;;;8.90;1.00;;;;;;5534307;25;20325;-83
2024/04/17 09:45:13;;;;;;;0.10;0.10;;;9.10;1.00;;;;;;5522498;25;20005;-82
2024/04/17 09:47:42;;;;;;;0.10;0.10;;;9.10;1.00;;;;;;5534492;25;20028;-81
2024/04/17 09:50:14;;;;;;;0.10;0.10;;;9.20;1.00;;;;;;5557994;25;20016;-80
2024/04/17 09:52:42;;;;;;;0.10;0.10;;;9.40;1.00;;;;;;5557534;25;20009;-81
2024/04/17 09:55:09;;;;;;;0.20;0.20;;;9.60;1.00;;;;;;5560113;25;20015;-81
2024/04/17 09:57:35;;;;;;;0.10;0.10;;;9.50;1.00;;;;;;5558470;25;20460;-80
2024/04/17 10:00:01;;;;;;;0.20;0.20;;;9.60;1.00;;;;;;5559246;25;20313;-82
2024/04/17 10:02:29;;;;;;;0.10;0.10;;;9.50;1.00;;;;;;5559105;25;20000;-82
2024/04/17 10:04:56;;;;;;;0.20;0.20;;;9.50;1.00;;;;;;5558470;25;20005;-81
2024/04/17 10:07:24;;;;;;;0.10;0.10;;;9.60;1.00;;;;;;5524486;25;20009;-82
2024/04/17 10:09:52;;;;;;;0.10;0.10;;;9.80;1.00;;;;;;5534761;25;19996;-81
2024/04/17 10:12:21;;;;;;;0.10;0.10;;;9.90;1.00;;;;;;5558540;25;20085;-82
2024/04/17 10:14:47;;;;;;;0.10;0.10;;;10.00;1.00;;;;;;5558950;25;20474;-81
2024/04/17 10:17:13;;;;;;;0.10;0.10;;;10.10;1.00;;;;;;5540490;25;20001;-81
2024/04/17 10:19:49;;;;;;;0.20;0.20;;;10.20;1.00;;;;;;5558793;25;20084;-80
2024/04/17 10:22:16;;;;;;;0.10;0.10;;;10.20;1.00;;;;;;5557540;25;20023;-81
2024/04/17 10:24:43;;;;;;;0.10;0.10;;;10.20;1.00;;;;;;5558165;25;20005;-82
2024/04/17 10:27:17;;;;;;;0.10;0.10;;;10.20;1.00;;;;;;5559025;25;20028;-82
2024/04/17 10:29:43;;;;;;;0.10;0.10;;;10.10;1.00;;;;;;5558927;25;20429;-81
2024/04/17 10:32:13;;;;;;;0.13;0.13;;;10.00;1.00;;;;;;5557756;25;20009;-83
2024/04/17 10:34:51;;;;;;;0.10;0.10;;;10.00;1.00;;;;;;5559144;25;20005;-81
2024/04/17 10:37:18;;;;;;;0.10;0.10;;;10.00;1.00;;;;;;5555292;25;20005;-81
2024/04/17 10:39:45;;;;;;;0.10;0.10;;;10.20;1.00;;;;;;5557405;25;20454;-80
2024/04/17 10:42:17;;;;;;;0.15;0.15;;;10.40;1.00;;;;;;5546449;25;20005;-82
2024/04/17 10:44:50;;;;;;;0.10;0.10;;;10.60;1.00;;;;;;5551249;25;20012;-80
2024/04/17 10:47:29;;;;;;;0.10;0.10;;;10.60;1.00;;;;;;5557681;25;20025;-85
2024/04/17 10:49:56;;;;;;;0.10;0.10;;;10.50;1.00;;;;;;5558255;25;20040;-84
2024/04/17 10:52:22;;;;;;;0.10;0.10;;;10.40;1.00;;;;;;5557165;25;20032;-84
2024/04/17 10:54:48;;;;;;;0.10;0.10;;;10.30;1.00;;;;;;5557728;25;20076;-83
2024/04/17 10:57:16;;;;;;;0.08;0.08;;;10.30;1.00;;;;;;5559729;25;20005;-84
2024/04/17 10:59:49;;;;;;;0.10;0.10;;;10.20;1.00;;;;;;5559180;25;20012;-84
2024/04/17 11:02:16;;;;;;;0.10;0.10;;;10.20;1.00;;;;;;5556646;25;20000;-83
2024/04/17 11:04:43;;;;;;;0.20;0.20;;;10.30;1.00;;;;;;5524296;25;20008;-83
2024/04/17 11:07:09;;;;;;;0.10;0.10;;;10.50;1.00;;;;;;5515869;25;20326;-83
2024/04/17 11:09:35;;;;;;;0.13;0.13;;;10.60;1.00;;;;;;5519383;26;20013;-83
2024/04/17 11:12:01;;;;;;;0.10;0.10;;;10.70;1.00;;;;;;5519966;26;20452;-83
2024/04/17 11:14:27;;;;;;;0.10;0.10;;;10.60;1.00;;;;;;5520839;25;20102;-83
2024/04/17 11:16:57;;;;;;;0.10;0.10;;;10.60;1.00;;;;;;5545795;25;20008;-82
2024/04/17 11:19:23;;;;;;;0.10;0.10;;;10.70;1.00;;;;;;5558818;25;20332;-82
2024/04/17 11:21:49;;;;;;;0.10;0.10;;;10.80;1.00;;;;;;5555859;25;20005;-85
2024/04/17 11:24:17;;;;;;;0.20;0.20;;;11.10;1.00;;;;;;5558925;25;20009;-83
2024/04/17 11:26:44;;;;;;;0.10;0.10;;;11.20;1.00;;;;;;5558568;25;20356;-85
2024/04/17 11:29:16;;;;;;;0.10;0.10;;;11.50;1.00;;;;;;5558241;25;20076;-85
2024/04/17 11:31:43;;;;;;;0.10;0.10;;;11.60;1.00;;;;;;5557855;25;20000;-84
2024/04/17 11:34:23;;;;;;;0.10;0.10;;;11.80;1.00;;;;;;5558739;25;20005;-83
2024/04/17 11:36:49;;;;;;;0.10;0.10;;;11.90;1.00;;;;;;5554686;25;20340;-87
2024/04/17 11:39:19;;;;;;;0.10;0.10;;;12.00;1.00;;;;;;5558514;25;20013;-85
2024/04/17 11:41:49;;;;;;;0.10;0.10;;;12.00;1.00;;;;;;5557172;25;20402;-83
2024/04/17 11:44:15;;;;;;;0.10;0.10;;;12.00;1.00;;;;;;5538093;25;19997;-83
2024/04/17 11:46:41;;;;;;;0.10;0.10;;;12.10;1.00;;;;;;5546665;25;20366;-83
2024/04/17 11:49:08;;;;;;;0.10;0.10;;;12.30;1.00;;;;;;5557111;25;20015;-83
2024/04/17 11:51:35;;;;;;;0.10;0.10;;;12.40;1.00;;;;;;5556787;25;20009;-84
2024/04/17 11:54:03;;;;;;;0.10;0.10;;;12.50;1.00;;;;;;5522714;25;20372;-84
2024/04/17 11:56:29;;;;;;;0.10;0.10;;;12.70;1.00;;;;;;5519343;25;20348;-84
2024/04/17 11:58:55;;;;;;;0.10;0.10;;;12.80;1.00;;;;;;5520155;26;20005;-83
2024/04/17 12:01:21;;;;;;;0.10;0.10;;;12.90;1.00;;;;;;5547308;25;20008;-85
2024/04/17 12:03:47;;;;;;;0.20;0.20;;;13.00;1.00;;;;;;5557229;25;20012;-85
2024/04/17 12:06:12;;;;;;;0.10;0.10;;;13.20;1.00;;;;;;5555906;25;20015;-86
2024/04/17 12:08:38;;;;;;;0.10;0.10;;;13.30;1.00;;;;;;5539094;25;20005;-85
2024/04/17 12:11:04;;;;;;;0.10;0.10;;;13.30;1.00;;;;;;5514885;26;20017;-85
2024/04/17 12:13:30;;;;;;;0.20;0.20;;;13.60;1.00;;;;;;5523239;25;20374;-86
2024/04/17 12:15:55;;;;;;;0.20;0.20;;;13.70;1.00;;;;;;5547859;25;20357;-86
2024/04/17 12:18:21;;;;;;;0.10;0.10;;;13.80;1.00;;;;;;5561416;25;20016;-85
2024/04/17 12:20:47;;;;;;;0.10;0.10;;;13.90;1.00;;;;;;5560914;25;20076;-87
2024/04/17 12:23:18;;;;;;;0.10;0.10;;;14.10;1.00;;;;;;5560761;25;20021;-88
2024/04/17 12:28:30;;;;;;;0.10;0.10;;;14.30;1.00;;;;;;5562607;25;20490;-85
2024/04/17 12:30:56;;;;;;;0.20;0.20;;;14.50;1.00;;;;;;5560958;25;20001;-85
2024/04/17 12:33:22;;;;;;;0.13;0.13;;;14.60;1.00;;;;;;5560830;25;20016;-85
2024/04/17 12:35:48;;;;;;;0.20;0.20;;;14.70;1.00;;;;;;5560385;25;20004;-86
2024/04/17 12:38:14;;;;;;;0.10;0.10;;;14.80;1.00;;;;;;5559905;25;20464;-88
2024/04/17 12:40:40;;;;;;;0.20;0.20;;;14.90;1.00;;;;;;5561124;25;20013;-87
2024/04/17 12:43:06;;;;;;;0.10;0.10;;;14.70;1.00;;;;;;5561628;25;20005;-87
2024/04/17 12:45:33;;;;;;;0.13;0.13;;;15.00;1.00;;;;;;5535705;25;19998;-86
2024/04/17 12:47:59;;;;;;;0.10;0.10;;;15.20;1.00;;;;;;5537904;25;20004;-86
2024/04/17 12:50:25;;;;;;;0.17;0.17;;;15.20;1.00;;;;;;5561184;25;20351;-87
2024/04/17 12:52:54;;;;;;;0.10;0.10;;;15.30;1.00;;;;;;5557880;25;20008;-87
2024/04/17 12:55:20;;;;;;;0.10;0.10;;;15.30;1.00;;;;;;5543507;25;20010;-87
2024/04/17 12:57:45;;;;;;;0.15;0.15;;;15.40;1.00;;;;;;5522970;25;20005;-85
2024/04/17 13:00:11;;;;;;;0.20;0.20;;;15.40;1.00;;;;;;5547923;25;20009;-87
2024/04/17 13:02:37;;;;;;;0.10;0.10;;;15.50;1.00;;;;;;5561645;25;20004;-88
2024/04/17 13:05:04;;;;;;;0.10;0.10;;;15.50;1.00;;;;;;5560987;25;20334;-89